Main page
METAR-TAF:

METAR-TAF

Airports :

Leknes Airport

Leknes, Norway

latitude: 68-09N, longitude: 013-37E, elevation: 2 m

Current weather observation

The report was made 3 hours and 33 minutes ago, at 21:20 UTC
Wind 14 kt from the East/Southeast
Temperature 0°C
Humidity 55%
Pressure 993 hPa
Visibility 10 km or more
Few clouds at a height of 4000 ft

METAR: ENLK 102120Z 12014KT 9999 FEW040 00/M08 Q0993

Time: 01:53 (00:53 UTC)


TAF: missing

Weather observations and forecasts of more than 4000 airports (METAR and TAF reports).

The available stations are represented by yellow and red dots on the map.

Hover mouse over dot to see the name of the station.

Then click to see weather observations and forecasts.

To change the map : click on the green buttons with a black cross to zoom in, on the green button with a dash to zoom out, or on the green arrows for adjacent maps.


METAR-TAF: